sensor_id;sensor_type;location;lat;lon;timestamp;P1;durP1;ratioP1;P2;durP2;ratioP2
12812;SDS011;6471;50.932;6.934;2023-08-07T00:00:59;8.23;;;2.50;;
12812;SDS011;6471;50.932;6.934;2023-08-07T00:03:25;9.30;;;2.50;;
12812;SDS011;6471;50.932;6.934;2023-08-07T00:05:51;6.53;;;2.63;;
12812;SDS011;6471;50.932;6.934;2023-08-07T00:08:17;6.43;;;2.67;;
12812;SDS011;6471;50.932;6.934;2023-08-07T00:10:43;5.67;;;2.30;;
12812;SDS011;6471;50.932;6.934;2023-08-07T00:13:09;7.40;;;2.17;;
12812;SDS011;6471;50.932;6.934;2023-08-07T00:15:39;8.13;;;2.70;;
12812;SDS011;6471;50.932;6.934;2023-08-07T00:18:05;8.00;;;2.53;;
12812;SDS011;6471;50.932;6.934;2023-08-07T00:20:31;8.57;;;2.60;;
12812;SDS011;6471;50.932;6.934;2023-08-07T00:22:57;7.30;;;3.00;;
12812;SDS011;6471;50.932;6.934;2023-08-07T00:25:23;8.53;;;2.80;;
12812;SDS011;6471;50.932;6.934;2023-08-07T00:27:49;7.93;;;2.90;;
12812;SDS011;6471;50.932;6.934;2023-08-07T00:30:15;6.93;;;2.53;;
12812;SDS011;6471;50.932;6.934;2023-08-07T00:32:41;9.43;;;2.60;;
12812;SDS011;6471;50.932;6.934;2023-08-07T00:35:08;11.27;;;2.77;;
12812;SDS011;6471;50.932;6.934;2023-08-07T00:37:34;8.23;;;3.07;;
12812;SDS011;6471;50.932;6.934;2023-08-07T00:40:00;9.97;;;2.77;;
12812;SDS011;6471;50.932;6.934;2023-08-07T00:42:26;7.53;;;2.90;;
12812;SDS011;6471;50.932;6.934;2023-08-07T00:44:53;7.33;;;3.20;;
12812;SDS011;6471;50.932;6.934;2023-08-07T00:47:19;9.67;;;3.00;;
12812;SDS011;6471;50.932;6.934;2023-08-07T00:49:45;10.53;;;3.30;;
12812;SDS011;6471;50.932;6.934;2023-08-07T00:52:11;5.97;;;2.70;;
12812;SDS011;6471;50.932;6.934;2023-08-07T00:54:37;7.87;;;3.00;;
12812;SDS011;6471;50.932;6.934;2023-08-07T00:57:13;7.33;;;2.93;;
12812;SDS011;6471;50.932;6.934;2023-08-07T00:59:40;6.00;;;2.83;;
12812;SDS011;6471;50.932;6.934;2023-08-07T01:02:06;5.73;;;2.47;;
12812;SDS011;6471;50.932;6.934;2023-08-07T01:04:33;7.40;;;2.80;;
12812;SDS011;6471;50.932;6.934;2023-08-07T01:06:59;4.93;;;2.70;;
12812;SDS011;6471;50.932;6.934;2023-08-07T01:09:25;10.00;;;2.73;;
12812;SDS011;6471;50.932;6.934;2023-08-07T01:11:55;5.67;;;2.90;;
12812;SDS011;6471;50.932;6.934;2023-08-07T01:16:52;6.60;;;2.87;;
12812;SDS011;6471;50.932;6.934;2023-08-07T01:19:27;6.77;;;2.70;;
12812;SDS011;6471;50.932;6.934;2023-08-07T01:22:09;8.53;;;2.83;;
12812;SDS011;6471;50.932;6.934;2023-08-07T01:24:36;7.10;;;2.80;;
12812;SDS011;6471;50.932;6.934;2023-08-07T01:27:07;8.00;;;2.70;;
12812;SDS011;6471;50.932;6.934;2023-08-07T01:29:40;5.30;;;2.87;;
12812;SDS011;6471;50.932;6.934;2023-08-07T01:32:08;5.70;;;2.73;;
12812;SDS011;6471;50.932;6.934;2023-08-07T01:34:35;6.23;;;2.80;;
12812;SDS011;6471;50.932;6.934;2023-08-07T01:37:02;7.60;;;2.60;;
12812;SDS011;6471;50.932;6.934;2023-08-07T01:39:29;7.50;;;2.73;;
12812;SDS011;6471;50.932;6.934;2023-08-07T01:41:56;5.83;;;2.40;;
12812;SDS011;6471;50.932;6.934;2023-08-07T01:44:25;5.47;;;2.50;;
12812;SDS011;6471;50.932;6.934;2023-08-07T01:46:51;6.50;;;2.60;;
12812;SDS011;6471;50.932;6.934;2023-08-07T01:49:17;7.47;;;3.00;;
12812;SDS011;6471;50.932;6.934;2023-08-07T01:51:43;4.60;;;2.50;;
12812;SDS011;6471;50.932;6.934;2023-08-07T01:54:09;5.93;;;2.60;;
12812;SDS011;6471;50.932;6.934;2023-08-07T01:56:35;8.23;;;2.47;;
12812;SDS011;6471;50.932;6.934;2023-08-07T01:59:01;8.83;;;2.77;;
12812;SDS011;6471;50.932;6.934;2023-08-07T02:01:27;6.27;;;2.80;;
12812;SDS011;6471;50.932;6.934;2023-08-07T02:03:53;5.97;;;2.60;;
12812;SDS011;6471;50.932;6.934;2023-08-07T02:06:19;7.47;;;2.60;;
12812;SDS011;6471;50.932;6.934;2023-08-07T02:08:45;10.53;;;2.70;;
12812;SDS011;6471;50.932;6.934;2023-08-07T02:11:11;8.43;;;2.80;;
12812;SDS011;6471;50.932;6.934;2023-08-07T02:13:38;11.67;;;2.70;;
12812;SDS011;6471;50.932;6.934;2023-08-07T02:16:04;8.77;;;3.30;;
12812;SDS011;6471;50.932;6.934;2023-08-07T02:18:30;10.90;;;2.97;;
12812;SDS011;6471;50.932;6.934;2023-08-07T02:20:56;8.13;;;3.07;;
12812;SDS011;6471;50.932;6.934;2023-08-07T02:23:22;7.93;;;2.40;;
12812;SDS011;6471;50.932;6.934;2023-08-07T02:25:48;8.57;;;3.10;;
12812;SDS011;6471;50.932;6.934;2023-08-07T02:28:14;7.93;;;2.70;;
12812;SDS011;6471;50.932;6.934;2023-08-07T02:30:40;6.77;;;2.63;;
12812;SDS011;6471;50.932;6.934;2023-08-07T02:33:06;9.30;;;2.70;;
12812;SDS011;6471;50.932;6.934;2023-08-07T02:35:32;6.50;;;2.43;;
12812;SDS011;6471;50.932;6.934;2023-08-07T02:37:58;5.97;;;2.87;;
12812;SDS011;6471;50.932;6.934;2023-08-07T02:40:24;7.23;;;2.70;;
12812;SDS011;6471;50.932;6.934;2023-08-07T02:42:50;8.57;;;2.63;;
12812;SDS011;6471;50.932;6.934;2023-08-07T02:45:16;8.23;;;3.23;;
12812;SDS011;6471;50.932;6.934;2023-08-07T02:47:42;7.73;;;3.10;;
12812;SDS011;6471;50.932;6.934;2023-08-07T02:50:08;6.33;;;3.00;;
12812;SDS011;6471;50.932;6.934;2023-08-07T02:52:34;6.13;;;2.50;;
12812;SDS011;6471;50.932;6.934;2023-08-07T02:55:01;10.07;;;3.10;;
12812;SDS011;6471;50.932;6.934;2023-08-07T02:57:27;6.63;;;3.03;;
12812;SDS011;6471;50.932;6.934;2023-08-07T02:59:53;9.97;;;3.00;;
12812;SDS011;6471;50.932;6.934;2023-08-07T03:02:19;10.87;;;2.90;;
12812;SDS011;6471;50.932;6.934;2023-08-07T03:04:45;8.43;;;2.70;;
12812;SDS011;6471;50.932;6.934;2023-08-07T03:07:11;5.83;;;2.47;;
12812;SDS011;6471;50.932;6.934;2023-08-07T03:09:37;7.20;;;2.53;;
12812;SDS011;6471;50.932;6.934;2023-08-07T03:12:03;9.57;;;3.20;;
12812;SDS011;6471;50.932;6.934;2023-08-07T03:14:30;9.17;;;2.77;;
12812;SDS011;6471;50.932;6.934;2023-08-07T03:16:56;6.90;;;2.70;;
12812;SDS011;6471;50.932;6.934;2023-08-07T03:19:22;6.90;;;2.70;;
12812;SDS011;6471;50.932;6.934;2023-08-07T03:21:48;7.20;;;2.77;;
12812;SDS011;6471;50.932;6.934;2023-08-07T03:24:14;6.13;;;2.93;;
12812;SDS011;6471;50.932;6.934;2023-08-07T03:26:40;10.07;;;2.87;;
12812;SDS011;6471;50.932;6.934;2023-08-07T03:29:06;4.87;;;2.40;;
12812;SDS011;6471;50.932;6.934;2023-08-07T03:31:32;6.63;;;3.00;;
12812;SDS011;6471;50.932;6.934;2023-08-07T03:33:58;5.57;;;2.60;;
12812;SDS011;6471;50.932;6.934;2023-08-07T03:36:24;8.27;;;2.97;;
12812;SDS011;6471;50.932;6.934;2023-08-07T03:38:50;8.77;;;2.83;;
12812;SDS011;6471;50.932;6.934;2023-08-07T03:41:16;8.20;;;2.97;;
12812;SDS011;6471;50.932;6.934;2023-08-07T03:43:42;6.30;;;2.80;;
12812;SDS011;6471;50.932;6.934;2023-08-07T03:46:08;6.70;;;3.20;;
12812;SDS011;6471;50.932;6.934;2023-08-07T03:48:34;10.27;;;2.97;;
12812;SDS011;6471;50.932;6.934;2023-08-07T03:51:04;4.73;;;2.80;;
12812;SDS011;6471;50.932;6.934;2023-08-07T03:53:33;5.07;;;2.40;;
12812;SDS011;6471;50.932;6.934;2023-08-07T03:55:59;9.97;;;3.07;;
12812;SDS011;6471;50.932;6.934;2023-08-07T03:58:25;7.20;;;2.90;;
12812;SDS011;6471;50.932;6.934;2023-08-07T04:00:51;7.30;;;2.90;;
12812;SDS011;6471;50.932;6.934;2023-08-07T04:03:20;7.97;;;2.80;;
12812;SDS011;6471;50.932;6.934;2023-08-07T04:05:47;5.33;;;2.47;;
12812;SDS011;6471;50.932;6.934;2023-08-07T04:08:16;4.50;;;2.40;;
12812;SDS011;6471;50.932;6.934;2023-08-07T04:10:42;6.87;;;2.47;;
12812;SDS011;6471;50.932;6.934;2023-08-07T04:13:11;5.23;;;2.53;;
12812;SDS011;6471;50.932;6.934;2023-08-07T04:15:37;5.30;;;2.47;;
12812;SDS011;6471;50.932;6.934;2023-08-07T04:18:03;7.73;;;2.70;;
12812;SDS011;6471;50.932;6.934;2023-08-07T04:20:29;5.87;;;2.77;;
12812;SDS011;6471;50.932;6.934;2023-08-07T04:22:55;5.53;;;2.83;;
12812;SDS011;6471;50.932;6.934;2023-08-07T04:25:21;8.63;;;3.37;;
12812;SDS011;6471;50.932;6.934;2023-08-07T04:27:48;4.20;;;2.63;;
12812;SDS011;6471;50.932;6.934;2023-08-07T04:30:14;6.43;;;3.00;;
12812;SDS011;6471;50.932;6.934;2023-08-07T04:32:40;6.43;;;2.73;;
12812;SDS011;6471;50.932;6.934;2023-08-07T04:35:06;5.03;;;2.70;;
12812;SDS011;6471;50.932;6.934;2023-08-07T04:37:32;8.50;;;3.00;;
12812;SDS011;6471;50.932;6.934;2023-08-07T04:39:58;8.37;;;3.13;;
12812;SDS011;6471;50.932;6.934;2023-08-07T04:42:26;4.20;;;2.80;;
12812;SDS011;6471;50.932;6.934;2023-08-07T04:44:52;6.63;;;2.73;;
12812;SDS011;6471;50.932;6.934;2023-08-07T04:47:18;6.70;;;2.70;;
12812;SDS011;6471;50.932;6.934;2023-08-07T04:49:45;5.23;;;2.80;;
12812;SDS011;6471;50.932;6.934;2023-08-07T04:52:11;5.87;;;2.90;;
12812;SDS011;6471;50.932;6.934;2023-08-07T04:54:37;6.50;;;3.00;;
12812;SDS011;6471;50.932;6.934;2023-08-07T04:57:03;4.77;;;2.47;;
12812;SDS011;6471;50.932;6.934;2023-08-07T04:59:29;6.30;;;2.80;;
12812;SDS011;6471;50.932;6.934;2023-08-07T05:01:56;5.87;;;2.90;;
12812;SDS011;6471;50.932;6.934;2023-08-07T05:04:22;8.37;;;3.20;;
12812;SDS011;6471;50.932;6.934;2023-08-07T05:06:48;9.17;;;3.30;;
12812;SDS011;6471;50.932;6.934;2023-08-07T05:09:14;5.40;;;2.73;;
12812;SDS011;6471;50.932;6.934;2023-08-07T05:11:41;7.10;;;3.03;;
12812;SDS011;6471;50.932;6.934;2023-08-07T05:14:07;6.67;;;2.50;;
12812;SDS011;6471;50.932;6.934;2023-08-07T05:16:33;5.97;;;2.90;;
12812;SDS011;6471;50.932;6.934;2023-08-07T05:18:59;7.27;;;3.03;;
12812;SDS011;6471;50.932;6.934;2023-08-07T05:21:25;6.73;;;2.83;;
12812;SDS011;6471;50.932;6.934;2023-08-07T05:23:51;9.83;;;2.93;;
12812;SDS011;6471;50.932;6.934;2023-08-07T05:26:20;6.23;;;2.90;;
12812;SDS011;6471;50.932;6.934;2023-08-07T05:28:46;8.07;;;3.37;;
12812;SDS011;6471;50.932;6.934;2023-08-07T05:31:12;7.33;;;2.73;;
12812;SDS011;6471;50.932;6.934;2023-08-07T05:33:38;5.03;;;2.77;;
12812;SDS011;6471;50.932;6.934;2023-08-07T05:36:04;4.83;;;2.40;;
12812;SDS011;6471;50.932;6.934;2023-08-07T05:38:31;5.77;;;2.43;;
12812;SDS011;6471;50.932;6.934;2023-08-07T05:40:57;5.67;;;2.73;;
12812;SDS011;6471;50.932;6.934;2023-08-07T05:43:23;6.53;;;2.70;;
12812;SDS011;6471;50.932;6.934;2023-08-07T05:45:49;6.23;;;2.67;;
12812;SDS011;6471;50.932;6.934;2023-08-07T05:48:16;4.63;;;2.43;;
12812;SDS011;6471;50.932;6.934;2023-08-07T05:50:42;10.47;;;2.73;;
12812;SDS011;6471;50.932;6.934;2023-08-07T05:53:08;7.13;;;2.40;;
12812;SDS011;6471;50.932;6.934;2023-08-07T05:55:34;7.97;;;2.33;;
12812;SDS011;6471;50.932;6.934;2023-08-07T05:58:00;6.20;;;2.50;;
12812;SDS011;6471;50.932;6.934;2023-08-07T06:00:26;5.73;;;2.70;;
12812;SDS011;6471;50.932;6.934;2023-08-07T06:02:53;6.53;;;2.70;;
12812;SDS011;6471;50.932;6.934;2023-08-07T06:05:39;5.60;;;2.57;;
12812;SDS011;6471;50.932;6.934;2023-08-07T06:09:09;4.67;;;2.40;;
12812;SDS011;6471;50.932;6.934;2023-08-07T06:12:15;5.30;;;2.30;;
12812;SDS011;6471;50.932;6.934;2023-08-07T06:15:21;7.93;;;2.53;;
12812;SDS011;6471;50.932;6.934;2023-08-07T06:17:47;6.47;;;2.90;;
12812;SDS011;6471;50.932;6.934;2023-08-07T06:20:17;7.60;;;2.70;;
12812;SDS011;6471;50.932;6.934;2023-08-07T06:22:43;11.07;;;3.13;;
12812;SDS011;6471;50.932;6.934;2023-08-07T06:25:14;8.80;;;2.90;;
12812;SDS011;6471;50.932;6.934;2023-08-07T06:27:41;8.60;;;2.93;;
12812;SDS011;6471;50.932;6.934;2023-08-07T06:30:07;5.63;;;2.30;;
12812;SDS011;6471;50.932;6.934;2023-08-07T06:32:33;5.10;;;2.77;;
12812;SDS011;6471;50.932;6.934;2023-08-07T06:35:00;6.30;;;2.70;;
12812;SDS011;6471;50.932;6.934;2023-08-07T06:37:26;8.57;;;2.87;;
12812;SDS011;6471;50.932;6.934;2023-08-07T06:39:52;5.97;;;2.67;;
12812;SDS011;6471;50.932;6.934;2023-08-07T06:42:19;5.67;;;2.93;;
12812;SDS011;6471;50.932;6.934;2023-08-07T06:44:45;6.83;;;2.97;;
12812;SDS011;6471;50.932;6.934;2023-08-07T06:47:11;6.53;;;2.87;;
12812;SDS011;6471;50.932;6.934;2023-08-07T06:49:37;6.03;;;2.57;;
12812;SDS011;6471;50.932;6.934;2023-08-07T06:52:03;6.43;;;3.00;;
12812;SDS011;6471;50.932;6.934;2023-08-07T06:54:29;5.93;;;2.33;;
12812;SDS011;6471;50.932;6.934;2023-08-07T06:56:55;7.03;;;2.80;;
12812;SDS011;6471;50.932;6.934;2023-08-07T06:59:21;5.33;;;2.83;;
12812;SDS011;6471;50.932;6.934;2023-08-07T07:01:48;7.27;;;2.80;;
12812;SDS011;6471;50.932;6.934;2023-08-07T07:04:14;6.43;;;2.77;;
12812;SDS011;6471;50.932;6.934;2023-08-07T07:06:41;6.30;;;2.77;;
12812;SDS011;6471;50.932;6.934;2023-08-07T07:09:07;3.40;;;2.27;;
12812;SDS011;6471;50.932;6.934;2023-08-07T07:11:33;4.37;;;2.70;;
12812;SDS011;6471;50.932;6.934;2023-08-07T07:13:59;5.67;;;2.53;;
12812;SDS011;6471;50.932;6.934;2023-08-07T07:16:26;7.60;;;3.10;;
12812;SDS011;6471;50.932;6.934;2023-08-07T07:18:52;7.33;;;2.93;;
12812;SDS011;6471;50.932;6.934;2023-08-07T07:21:18;5.20;;;2.90;;
12812;SDS011;6471;50.932;6.934;2023-08-07T07:23:45;7.27;;;2.80;;
12812;SDS011;6471;50.932;6.934;2023-08-07T07:26:11;7.73;;;2.90;;
12812;SDS011;6471;50.932;6.934;2023-08-07T07:28:37;5.87;;;2.50;;
12812;SDS011;6471;50.932;6.934;2023-08-07T07:31:03;4.63;;;2.60;;
12812;SDS011;6471;50.932;6.934;2023-08-07T07:33:30;7.30;;;3.17;;
12812;SDS011;6471;50.932;6.934;2023-08-07T07:35:56;6.23;;;2.83;;
12812;SDS011;6471;50.932;6.934;2023-08-07T07:38:22;7.57;;;3.20;;
12812;SDS011;6471;50.932;6.934;2023-08-07T07:40:48;6.30;;;2.77;;
12812;SDS011;6471;50.932;6.934;2023-08-07T07:43:14;6.17;;;2.83;;
12812;SDS011;6471;50.932;6.934;2023-08-07T07:45:40;6.77;;;2.90;;
12812;SDS011;6471;50.932;6.934;2023-08-07T07:48:06;5.40;;;2.97;;
12812;SDS011;6471;50.932;6.934;2023-08-07T07:50:33;7.37;;;3.13;;
12812;SDS011;6471;50.932;6.934;2023-08-07T07:52:59;5.80;;;2.80;;
12812;SDS011;6471;50.932;6.934;2023-08-07T07:55:25;7.27;;;2.83;;
12812;SDS011;6471;50.932;6.934;2023-08-07T07:57:51;10.57;;;3.57;;
12812;SDS011;6471;50.932;6.934;2023-08-07T08:00:17;5.27;;;2.60;;
12812;SDS011;6471;50.932;6.934;2023-08-07T08:02:43;6.90;;;2.70;;
12812;SDS011;6471;50.932;6.934;2023-08-07T08:05:09;4.70;;;2.60;;
12812;SDS011;6471;50.932;6.934;2023-08-07T08:07:37;6.80;;;3.10;;
12812;SDS011;6471;50.932;6.934;2023-08-07T08:10:05;5.67;;;2.77;;
12812;SDS011;6471;50.932;6.934;2023-08-07T08:12:31;7.10;;;2.70;;
12812;SDS011;6471;50.932;6.934;2023-08-07T08:14:57;5.53;;;2.50;;
12812;SDS011;6471;50.932;6.934;2023-08-07T08:17:23;6.33;;;2.80;;
12812;SDS011;6471;50.932;6.934;2023-08-07T08:19:49;7.23;;;2.57;;
12812;SDS011;6471;50.932;6.934;2023-08-07T08:22:15;8.00;;;2.90;;
12812;SDS011;6471;50.932;6.934;2023-08-07T08:24:41;6.40;;;2.57;;
12812;SDS011;6471;50.932;6.934;2023-08-07T08:27:07;7.07;;;2.90;;
12812;SDS011;6471;50.932;6.934;2023-08-07T08:29:33;4.80;;;3.00;;
12812;SDS011;6471;50.932;6.934;2023-08-07T08:32:00;6.87;;;2.70;;
12812;SDS011;6471;50.932;6.934;2023-08-07T08:34:26;7.60;;;2.80;;
12812;SDS011;6471;50.932;6.934;2023-08-07T08:36:53;6.93;;;3.00;;
12812;SDS011;6471;50.932;6.934;2023-08-07T08:39:19;6.57;;;2.83;;
12812;SDS011;6471;50.932;6.934;2023-08-07T08:41:46;6.73;;;2.80;;
12812;SDS011;6471;50.932;6.934;2023-08-07T08:44:15;10.63;;;2.90;;
12812;SDS011;6471;50.932;6.934;2023-08-07T08:46:42;7.53;;;2.80;;
12812;SDS011;6471;50.932;6.934;2023-08-07T08:49:08;7.00;;;2.70;;
12812;SDS011;6471;50.932;6.934;2023-08-07T08:51:36;9.30;;;2.80;;
12812;SDS011;6471;50.932;6.934;2023-08-07T08:54:03;5.13;;;2.67;;
12812;SDS011;6471;50.932;6.934;2023-08-07T08:56:32;5.37;;;2.60;;
12812;SDS011;6471;50.932;6.934;2023-08-07T08:58:58;5.93;;;2.90;;
12812;SDS011;6471;50.932;6.934;2023-08-07T09:01:24;11.27;;;3.20;;
12812;SDS011;6471;50.932;6.934;2023-08-07T09:03:53;7.73;;;3.10;;
12812;SDS011;6471;50.932;6.934;2023-08-07T09:06:21;6.87;;;3.00;;
12812;SDS011;6471;50.932;6.934;2023-08-07T09:08:47;5.47;;;2.60;;
12812;SDS011;6471;50.932;6.934;2023-08-07T09:11:15;9.77;;;3.00;;
12812;SDS011;6471;50.932;6.934;2023-08-07T09:13:42;6.17;;;2.80;;
12812;SDS011;6471;50.932;6.934;2023-08-07T09:16:08;7.60;;;2.70;;
12812;SDS011;6471;50.932;6.934;2023-08-07T09:18:35;5.23;;;2.40;;
12812;SDS011;6471;50.932;6.934;2023-08-07T09:21:02;4.57;;;2.67;;
12812;SDS011;6471;50.932;6.934;2023-08-07T09:23:30;5.07;;;2.60;;
12812;SDS011;6471;50.932;6.934;2023-08-07T09:26:00;6.53;;;2.57;;
12812;SDS011;6471;50.932;6.934;2023-08-07T09:28:26;7.83;;;2.97;;
12812;SDS011;6471;50.932;6.934;2023-08-07T09:30:54;4.07;;;2.07;;
12812;SDS011;6471;50.932;6.934;2023-08-07T09:33:24;6.80;;;2.47;;
12812;SDS011;6471;50.932;6.934;2023-08-07T09:35:51;7.00;;;2.67;;
12812;SDS011;6471;50.932;6.934;2023-08-07T09:38:17;5.13;;;2.43;;
12812;SDS011;6471;50.932;6.934;2023-08-07T09:40:43;4.57;;;2.87;;
12812;SDS011;6471;50.932;6.934;2023-08-07T09:43:09;5.67;;;2.40;;
12812;SDS011;6471;50.932;6.934;2023-08-07T09:45:36;6.60;;;2.37;;
12812;SDS011;6471;50.932;6.934;2023-08-07T09:48:05;5.07;;;2.07;;
12812;SDS011;6471;50.932;6.934;2023-08-07T09:50:32;5.23;;;2.60;;
12812;SDS011;6471;50.932;6.934;2023-08-07T09:52:58;4.43;;;2.30;;
12812;SDS011;6471;50.932;6.934;2023-08-07T09:55:24;5.37;;;2.30;;
12812;SDS011;6471;50.932;6.934;2023-08-07T09:57:51;5.50;;;2.10;;
12812;SDS011;6471;50.932;6.934;2023-08-07T10:00:17;6.20;;;2.33;;
12812;SDS011;6471;50.932;6.934;2023-08-07T10:02:49;5.07;;;2.40;;
12812;SDS011;6471;50.932;6.934;2023-08-07T10:05:16;4.83;;;2.10;;
12812;SDS011;6471;50.932;6.934;2023-08-07T10:07:42;6.63;;;2.17;;
12812;SDS011;6471;50.932;6.934;2023-08-07T10:10:08;6.07;;;2.10;;
12812;SDS011;6471;50.932;6.934;2023-08-07T10:12:35;5.57;;;1.60;;
12812;SDS011;6471;50.932;6.934;2023-08-07T10:15:02;3.73;;;2.20;;
12812;SDS011;6471;50.932;6.934;2023-08-07T10:17:28;4.93;;;2.00;;
12812;SDS011;6471;50.932;6.934;2023-08-07T10:19:55;6.83;;;2.80;;
12812;SDS011;6471;50.932;6.934;2023-08-07T10:22:25;5.03;;;2.10;;
12812;SDS011;6471;50.932;6.934;2023-08-07T10:24:53;5.87;;;2.30;;
12812;SDS011;6471;50.932;6.934;2023-08-07T10:27:20;6.37;;;2.00;;
12812;SDS011;6471;50.932;6.934;2023-08-07T10:29:47;4.90;;;2.00;;
12812;SDS011;6471;50.932;6.934;2023-08-07T10:32:14;5.83;;;2.17;;
12812;SDS011;6471;50.932;6.934;2023-08-07T10:34:42;4.70;;;2.13;;
12812;SDS011;6471;50.932;6.934;2023-08-07T10:37:31;5.10;;;2.20;;
12812;SDS011;6471;50.932;6.934;2023-08-07T10:40:02;5.97;;;2.03;;
12812;SDS011;6471;50.932;6.934;2023-08-07T10:42:32;4.37;;;2.03;;
12812;SDS011;6471;50.932;6.934;2023-08-07T10:45:00;5.53;;;2.57;;
12812;SDS011;6471;50.932;6.934;2023-08-07T10:47:33;3.37;;;2.00;;
12812;SDS011;6471;50.932;6.934;2023-08-07T10:49:59;5.13;;;2.17;;
12812;SDS011;6471;50.932;6.934;2023-08-07T10:52:25;3.77;;;1.80;;
12812;SDS011;6471;50.932;6.934;2023-08-07T10:54:51;3.30;;;2.00;;
12812;SDS011;6471;50.932;6.934;2023-08-07T10:57:17;6.30;;;1.90;;
12812;SDS011;6471;50.932;6.934;2023-08-07T10:59:51;6.33;;;2.10;;
12812;SDS011;6471;50.932;6.934;2023-08-07T11:02:30;6.63;;;1.93;;
12812;SDS011;6471;50.932;6.934;2023-08-07T11:04:56;5.13;;;2.20;;
12812;SDS011;6471;50.932;6.934;2023-08-07T11:07:24;4.47;;;1.80;;
12812;SDS011;6471;50.932;6.934;2023-08-07T11:09:50;4.77;;;2.07;;
12812;SDS011;6471;50.932;6.934;2023-08-07T11:12:16;5.77;;;2.10;;
12812;SDS011;6471;50.932;6.934;2023-08-07T11:14:43;4.37;;;2.07;;
12812;SDS011;6471;50.932;6.934;2023-08-07T11:17:09;3.00;;;1.80;;
12812;SDS011;6471;50.932;6.934;2023-08-07T11:19:36;3.00;;;1.53;;
12812;SDS011;6471;50.932;6.934;2023-08-07T11:22:02;6.43;;;1.87;;
12812;SDS011;6471;50.932;6.934;2023-08-07T11:24:28;4.37;;;1.90;;
12812;SDS011;6471;50.932;6.934;2023-08-07T11:26:55;3.83;;;1.90;;
12812;SDS011;6471;50.932;6.934;2023-08-07T11:29:22;3.30;;;1.67;;
12812;SDS011;6471;50.932;6.934;2023-08-07T11:31:50;5.90;;;2.00;;
12812;SDS011;6471;50.932;6.934;2023-08-07T11:34:16;6.90;;;2.10;;
12812;SDS011;6471;50.932;6.934;2023-08-07T11:36:43;4.40;;;1.73;;
12812;SDS011;6471;50.932;6.934;2023-08-07T11:39:09;3.60;;;1.60;;
12812;SDS011;6471;50.932;6.934;2023-08-07T11:41:36;3.60;;;1.77;;
12812;SDS011;6471;50.932;6.934;2023-08-07T11:44:02;3.87;;;1.80;;
12812;SDS011;6471;50.932;6.934;2023-08-07T11:46:28;7.03;;;1.93;;
12812;SDS011;6471;50.932;6.934;2023-08-07T11:48:55;4.50;;;1.93;;
12812;SDS011;6471;50.932;6.934;2023-08-07T11:51:22;6.30;;;2.20;;
12812;SDS011;6471;50.932;6.934;2023-08-07T11:53:48;2.90;;;1.80;;
12812;SDS011;6471;50.932;6.934;2023-08-07T11:56:14;5.43;;;2.10;;
12812;SDS011;6471;50.932;6.934;2023-08-07T11:58:43;3.80;;;2.00;;
12812;SDS011;6471;50.932;6.934;2023-08-07T12:01:16;3.27;;;1.80;;
12812;SDS011;6471;50.932;6.934;2023-08-07T12:03:50;5.43;;;2.10;;
12812;SDS011;6471;50.932;6.934;2023-08-07T12:06:16;3.83;;;1.90;;
12812;SDS011;6471;50.932;6.934;2023-08-07T12:08:42;4.37;;;2.10;;
12812;SDS011;6471;50.932;6.934;2023-08-07T12:11:09;3.53;;;2.07;;
12812;SDS011;6471;50.932;6.934;2023-08-07T12:13:39;5.60;;;2.27;;
12812;SDS011;6471;50.932;6.934;2023-08-07T12:16:09;4.50;;;2.30;;
12812;SDS011;6471;50.932;6.934;2023-08-07T12:18:42;4.90;;;2.00;;
12812;SDS011;6471;50.932;6.934;2023-08-07T12:21:09;4.10;;;2.00;;
12812;SDS011;6471;50.932;6.934;2023-08-07T12:23:36;5.73;;;2.20;;
12812;SDS011;6471;50.932;6.934;2023-08-07T12:26:03;4.07;;;2.20;;
12812;SDS011;6471;50.932;6.934;2023-08-07T12:28:31;4.03;;;1.90;;
12812;SDS011;6471;50.932;6.934;2023-08-07T12:30:57;4.97;;;1.97;;
12812;SDS011;6471;50.932;6.934;2023-08-07T12:33:23;6.67;;;2.33;;
12812;SDS011;6471;50.932;6.934;2023-08-07T12:35:49;4.60;;;2.03;;
12812;SDS011;6471;50.932;6.934;2023-08-07T12:38:16;4.90;;;2.13;;
12812;SDS011;6471;50.932;6.934;2023-08-07T12:40:42;4.40;;;2.17;;
12812;SDS011;6471;50.932;6.934;2023-08-07T12:43:08;9.53;;;2.33;;
12812;SDS011;6471;50.932;6.934;2023-08-07T12:45:34;5.13;;;1.77;;
12812;SDS011;6471;50.932;6.934;2023-08-07T12:48:00;3.80;;;2.00;;
12812;SDS011;6471;50.932;6.934;2023-08-07T12:50:27;3.77;;;2.13;;
12812;SDS011;6471;50.932;6.934;2023-08-07T12:52:53;4.10;;;2.00;;
12812;SDS011;6471;50.932;6.934;2023-08-07T12:55:19;3.93;;;1.87;;
12812;SDS011;6471;50.932;6.934;2023-08-07T12:57:45;5.97;;;1.90;;
12812;SDS011;6471;50.932;6.934;2023-08-07T13:00:13;6.40;;;1.90;;
12812;SDS011;6471;50.932;6.934;2023-08-07T13:02:43;5.77;;;2.00;;
12812;SDS011;6471;50.932;6.934;2023-08-07T13:05:10;3.57;;;2.20;;
12812;SDS011;6471;50.932;6.934;2023-08-07T13:07:37;4.47;;;2.27;;
12812;SDS011;6471;50.932;6.934;2023-08-07T13:10:07;4.77;;;2.07;;
12812;SDS011;6471;50.932;6.934;2023-08-07T13:12:37;4.53;;;2.20;;
12812;SDS011;6471;50.932;6.934;2023-08-07T13:15:03;6.80;;;2.37;;
12812;SDS011;6471;50.932;6.934;2023-08-07T13:17:30;6.37;;;2.10;;
12812;SDS011;6471;50.932;6.934;2023-08-07T13:19:56;4.30;;;2.00;;
12812;SDS011;6471;50.932;6.934;2023-08-07T13:22:22;4.27;;;2.07;;
12812;SDS011;6471;50.932;6.934;2023-08-07T13:24:48;3.07;;;1.80;;
12812;SDS011;6471;50.932;6.934;2023-08-07T13:27:14;3.17;;;1.93;;
12812;SDS011;6471;50.932;6.934;2023-08-07T13:29:41;3.03;;;1.83;;
12812;SDS011;6471;50.932;6.934;2023-08-07T13:32:07;5.47;;;2.00;;
12812;SDS011;6471;50.932;6.934;2023-08-07T13:34:34;3.77;;;1.90;;
12812;SDS011;6471;50.932;6.934;2023-08-07T13:37:01;5.80;;;2.30;;
12812;SDS011;6471;50.932;6.934;2023-08-07T13:39:27;3.97;;;2.20;;
12812;SDS011;6471;50.932;6.934;2023-08-07T13:41:54;5.07;;;2.00;;
12812;SDS011;6471;50.932;6.934;2023-08-07T13:44:20;2.90;;;1.80;;
12812;SDS011;6471;50.932;6.934;2023-08-07T13:46:47;5.90;;;2.10;;
12812;SDS011;6471;50.932;6.934;2023-08-07T13:49:13;3.83;;;1.80;;
12812;SDS011;6471;50.932;6.934;2023-08-07T13:51:42;7.10;;;2.50;;
12812;SDS011;6471;50.932;6.934;2023-08-07T13:54:09;3.80;;;1.93;;
12812;SDS011;6471;50.932;6.934;2023-08-07T13:56:35;4.30;;;2.10;;
12812;SDS011;6471;50.932;6.934;2023-08-07T13:59:01;6.03;;;2.20;;
12812;SDS011;6471;50.932;6.934;2023-08-07T14:01:27;5.73;;;2.17;;
12812;SDS011;6471;50.932;6.934;2023-08-07T14:03:53;5.93;;;2.00;;
12812;SDS011;6471;50.932;6.934;2023-08-07T14:06:20;6.40;;;2.00;;
12812;SDS011;6471;50.932;6.934;2023-08-07T14:08:46;4.80;;;2.00;;
12812;SDS011;6471;50.932;6.934;2023-08-07T14:11:12;4.87;;;1.80;;
12812;SDS011;6471;50.932;6.934;2023-08-07T14:13:40;4.43;;;1.80;;
12812;SDS011;6471;50.932;6.934;2023-08-07T14:16:06;3.97;;;2.00;;
12812;SDS011;6471;50.932;6.934;2023-08-07T14:18:33;3.93;;;1.80;;
12812;SDS011;6471;50.932;6.934;2023-08-07T14:20:59;3.90;;;2.07;;
12812;SDS011;6471;50.932;6.934;2023-08-07T14:23:25;3.70;;;1.80;;
12812;SDS011;6471;50.932;6.934;2023-08-07T14:25:51;3.97;;;1.83;;
12812;SDS011;6471;50.932;6.934;2023-08-07T14:28:18;6.23;;;2.30;;
12812;SDS011;6471;50.932;6.934;2023-08-07T14:30:44;3.67;;;2.13;;
12812;SDS011;6471;50.932;6.934;2023-08-07T14:33:10;5.10;;;2.10;;
12812;SDS011;6471;50.932;6.934;2023-08-07T14:35:36;5.47;;;2.20;;
12812;SDS011;6471;50.932;6.934;2023-08-07T14:38:03;3.90;;;2.20;;
12812;SDS011;6471;50.932;6.934;2023-08-07T14:40:29;4.63;;;2.20;;
12812;SDS011;6471;50.932;6.934;2023-08-07T14:42:55;4.23;;;2.10;;
12812;SDS011;6471;50.932;6.934;2023-08-07T14:45:21;4.90;;;2.27;;
12812;SDS011;6471;50.932;6.934;2023-08-07T14:47:51;6.90;;;2.37;;
12812;SDS011;6471;50.932;6.934;2023-08-07T14:50:17;3.93;;;1.93;;
12812;SDS011;6471;50.932;6.934;2023-08-07T14:52:43;4.63;;;2.10;;
12812;SDS011;6471;50.932;6.934;2023-08-07T14:55:09;3.60;;;2.50;;
12812;SDS011;6471;50.932;6.934;2023-08-07T14:57:35;2.47;;;1.93;;
12812;SDS011;6471;50.932;6.934;2023-08-07T15:00:01;5.50;;;2.20;;
12812;SDS011;6471;50.932;6.934;2023-08-07T15:02:27;5.10;;;2.00;;